Time;durP1;ratioP1;P1;durP2;ratioP2;P2;SDS_P1;SDS_P2;PMS_P1;PMS_P2;Temp;Humidity;BMP_temperature;BMP_pressure;BME280_temperature;BME280_humidity;BME280_pressure;Samples;Min_cycle;Max_cycle;Signal;HPM_P1;HPM_P2
2022/05/08 00:02:23;;;;;;;14.70;7.47;;;;;;;11.01;77.93;97870.19;5053253;28;20130;-85
2022/05/08 00:04:52;;;;;;;10.23;6.45;;;;;;;10.93;78.85;97870.63;5035607;28;20024;-85
2022/05/08 00:07:19;;;;;;;10.43;6.07;;;;;;;11.00;78.73;97872.00;5036424;28;20597;-84
2022/05/08 00:09:49;;;;;;;13.25;7.18;;;;;;;10.88;80.63;97860.22;5035884;28;20094;-84
2022/05/08 00:12:15;;;;;;;11.70;6.50;;;;;;;10.97;77.27;97861.50;5052311;28;20393;-84
2022/05/08 00:14:41;;;;;;;10.30;4.90;;;;;;;11.09;73.52;97858.09;5036026;28;20040;-84
2022/05/08 00:17:11;;;;;;;8.13;4.78;;;;;;;11.13;73.15;97864.13;5052785;28;20558;-84
2022/05/08 00:19:39;;;;;;;9.07;5.20;;;;;;;11.02;75.26;97869.22;5037515;28;20029;-84
2022/05/08 00:22:06;;;;;;;9.45;5.50;;;;;;;10.98;76.28;97865.03;5036422;28;20037;-84
2022/05/08 00:24:32;;;;;;;6.70;4.90;;;;;;;10.99;75.03;97866.72;5037131;28;20403;-84
2022/05/08 00:26:58;;;;;;;6.15;4.38;;;;;;;10.97;73.62;97858.81;5036125;28;20120;-84
2022/05/08 00:29:23;;;;;;;9.82;5.15;;;;;;;10.91;74.54;97859.16;5053311;28;20084;-84
2022/05/08 00:31:49;;;;;;;7.95;5.47;;;;;;;10.88;78.86;97860.22;5053282;28;20057;-86
2022/05/08 00:34:15;;;;;;;8.13;5.75;;;;;;;10.64;81.68;97855.41;5035938;28;20029;-84
2022/05/08 00:36:40;;;;;;;13.43;6.40;;;;;;;10.43;84.30;97836.09;5052584;28;20044;-85
2022/05/08 00:39:06;;;;;;;11.23;6.07;;;;;;;10.44;86.28;97855.66;5035845;28;20033;-84
2022/05/08 00:41:32;;;;;;;9.77;5.93;;;;;;;10.30;89.06;97862.66;5036346;28;20028;-86
2022/05/08 00:43:57;;;;;;;8.95;6.15;;;;;;;10.31;90.75;97871.53;5036204;28;20024;-85
2022/05/08 00:46:23;;;;;;;9.13;5.80;;;;;;;10.07;90.06;97851.47;5035894;28;20028;-84
2022/05/08 00:48:49;;;;;;;10.85;6.43;;;;;;;9.88;90.90;97832.91;5052291;28;20043;-84
2022/05/08 00:51:16;;;;;;;21.60;7.53;;;;;;;9.76;92.56;97834.44;5052427;28;20029;-84
2022/05/08 00:53:44;;;;;;;12.75;7.28;;;;;;;9.94;93.40;97867.31;5035723;28;20380;-84
2022/05/08 00:56:11;;;;;;;13.48;6.97;;;;;;;9.88;93.24;97875.66;5035755;28;20025;-84
2022/05/08 00:58:39;;;;;;;12.65;6.88;;;;;;;9.88;95.50;97869.44;5035891;28;20464;-84
2022/05/08 01:01:05;;;;;;;16.73;6.65;;;;;;;9.71;96.54;97847.19;5052771;28;20553;-84
2022/05/08 01:03:32;;;;;;;11.07;7.22;;;;;;;9.73;97.48;97857.78;5035539;28;20033;-84
2022/05/08 01:05:59;;;;;;;9.98;6.55;;;;;;;9.61;98.34;97848.63;5052261;28;20098;-84
2022/05/08 01:09:15;;;;;;;10.02;6.40;;;;;;;9.70;100.00;97872.19;5039876;28;20071;-84
2022/05/08 01:11:41;;;;;;;10.77;6.85;;;;;;;9.48;100.00;97852.03;5068906;28;20504;-85
2022/05/08 01:14:09;;;;;;;11.15;7.25;;;;;;;9.35;100.00;97837.63;5035809;28;20082;-85
2022/05/08 01:19:56;;;;;;;14.60;7.40;;;;;;;9.41;100.00;97872.88;5034064;28;20044;-84
2022/05/08 01:22:21;;;;;;;10.32;7.65;;;;;;;9.25;100.00;97854.09;5032309;28;20030;-85
2022/05/08 01:24:47;;;;;;;10.95;8.00;;;;;;;9.19;100.00;97848.22;5063034;28;20025;-85
2022/05/08 01:27:13;;;;;;;10.93;7.75;;;;;;;9.02;100.00;97830.41;5052136;28;20037;-85
2022/05/08 01:29:38;;;;;;;17.27;8.18;;;;;;;8.98;100.00;97830.66;5034760;28;20139;-86
2022/05/08 01:32:05;;;;;;;15.60;7.45;;;;;;;9.13;100.00;97856.53;5052170;28;20045;-84
2022/05/08 01:34:30;;;;;;;13.95;7.97;;;;;;;9.09;100.00;97842.50;5051464;28;20039;-84
2022/05/08 01:36:56;;;;;;;13.32;7.55;;;;;;;9.31;100.00;97865.41;5051051;28;20115;-85
2022/05/08 01:39:21;;;;;;;13.50;6.53;;;;;;;9.25;100.00;97848.78;5051478;28;20033;-83
2022/05/08 01:41:47;;;;;;;11.90;7.65;;;;;;;9.22;100.00;97864.94;5051211;28;20075;-84
2022/05/08 01:44:13;;;;;;;11.07;7.03;;;;;;;9.12;100.00;97855.66;5034415;28;20033;-84
2022/05/08 01:46:38;;;;;;;19.65;6.88;;;;;;;9.04;100.00;97855.22;5050862;28;20033;-83
2022/05/08 01:49:04;;;;;;;12.07;7.32;;;;;;;8.98;100.00;97870.66;5034361;28;20048;-84
2022/05/08 01:51:30;;;;;;;12.80;7.60;;;;;;;8.97;100.00;97859.13;5050973;28;20028;-84
2022/05/08 01:53:55;;;;;;;11.13;7.50;;;;;;;8.90;100.00;97857.69;5050946;28;20037;-85
2022/05/08 01:56:21;;;;;;;9.60;7.05;;;;;;;8.84;100.00;97865.13;5034377;28;20091;-85
2022/05/08 01:58:48;;;;;;;13.85;7.55;;;;;;;8.79;100.00;97875.19;5050556;28;20107;-85
2022/05/08 02:01:14;;;;;;;15.23;7.75;;;;;;;8.70;100.00;97877.34;5034757;28;20068;-84
2022/05/08 02:03:40;;;;;;;16.88;7.95;;;;;;;8.65;100.00;97866.06;5051268;28;20032;-84
2022/05/08 02:06:06;;;;;;;13.38;8.18;;;;;;;8.57;100.00;97865.56;5051035;28;20028;-84
2022/05/08 02:08:31;;;;;;;17.77;8.23;;;;;;;8.58;100.00;97879.78;5034226;28;20029;-84
2022/05/08 02:10:57;;;;;;;16.48;8.00;;;;;;;8.54;100.00;97876.38;5051219;28;20051;-85
2022/05/08 02:13:22;;;;;;;15.95;8.13;;;;;;;8.43;100.00;97873.38;5050989;28;20115;-84
2022/05/08 02:15:48;;;;;;;16.13;8.40;;;;;;;8.43;100.00;97880.53;5050760;28;20111;-84
2022/05/08 02:18:14;;;;;;;19.00;9.02;;;;;;;8.36;100.00;97871.94;5050818;28;20120;-84
2022/05/08 02:20:40;;;;;;;17.70;9.15;;;;;;;8.35;100.00;97870.22;5050467;28;20909;-84
2022/05/08 02:23:06;;;;;;;14.43;9.40;;;;;;;8.25;100.00;97862.69;5050871;28;20041;-85
2022/05/08 02:25:32;;;;;;;19.27;8.50;;;;;;;8.15;100.00;97863.13;5050936;28;20119;-85
2022/05/08 02:27:57;;;;;;;17.90;8.93;;;;;;;8.24;100.00;97875.16;5036138;28;20134;-85
2022/05/08 02:30:25;;;;;;;20.67;9.38;;;;;;;8.19;100.00;97866.50;5054447;28;20199;-86
2022/05/08 02:32:54;;;;;;;20.52;9.82;;;;;;;7.96;100.00;97817.00;5054571;28;20094;-85
2022/05/08 02:35:21;;;;;;;15.63;9.90;;;;;;;8.13;100.00;97873.00;5054705;28;20508;-84
2022/05/08 02:37:50;;;;;;;21.13;10.95;;;;;;;8.03;100.00;97878.81;5053949;28;20037;-84
2022/05/08 02:40:17;;;;;;;18.73;10.75;;;;;;;7.99;100.00;97867.47;5054649;28;20052;-84
2022/05/08 02:42:43;;;;;;;17.27;10.55;;;;;;;7.99;100.00;97878.13;5037444;28;20033;-84
2022/05/08 02:45:10;;;;;;;15.93;10.55;;;;;;;7.91;100.00;97869.59;5037532;28;20039;-82
2022/05/08 02:47:37;;;;;;;20.35;11.05;;;;;;;7.93;100.00;97878.41;5053266;28;20534;-75
2022/05/08 02:50:04;;;;;;;17.48;10.90;;;;;;;7.89;100.00;97865.28;5053485;28;20029;-85
2022/05/08 02:52:30;;;;;;;16.17;10.93;;;;;;;7.88;100.00;97876.84;5054147;28;20051;-85
2022/05/08 02:54:55;;;;;;;19.92;10.73;;;;;;;7.91;100.00;97874.06;5037425;28;20484;-86
2022/05/08 03:00:06;;;;;;;16.23;11.20;;;;;;;7.77;100.00;97864.06;5054726;28;20058;-85
2022/05/08 03:02:35;;;;;;;20.52;11.93;;;;;;;7.90;100.00;97889.19;5054158;28;20086;-85
2022/05/08 03:05:02;;;;;;;19.75;11.38;;;;;;;7.81;100.00;97875.44;5053970;28;20154;-85
2022/05/08 03:07:29;;;;;;;16.50;11.07;;;;;;;7.62;100.00;97852.31;5053961;28;20025;-85
2022/05/08 03:09:55;;;;;;;22.63;12.02;;;;;;;7.53;100.00;97862.50;5037247;28;20394;-84
2022/05/08 03:12:21;;;;;;;18.70;10.82;;;;;;;7.52;100.00;97851.00;5037320;28;20114;-84
2022/05/08 03:14:46;;;;;;;17.73;10.70;;;;;;;7.67;100.00;97881.38;5053426;28;20429;-83
2022/05/08 03:17:12;;;;;;;17.67;10.88;;;;;;;7.44;100.00;97852.28;5053591;28;20508;-84
2022/05/08 03:19:38;;;;;;;19.58;11.13;;;;;;;7.51;100.00;97867.00;5036965;28;20032;-83
2022/05/08 03:22:03;;;;;;;20.63;11.65;;;;;;;7.46;100.00;97850.41;5037243;28;20025;-83
2022/05/08 03:24:29;;;;;;;19.42;10.90;;;;;;;7.57;100.00;97864.94;5054004;28;20523;-84
2022/05/08 03:26:56;;;;;;;34.20;11.52;;;;;;;7.64;100.00;97870.84;5037118;28;20091;-85
2022/05/08 03:29:24;;;;;;;18.55;9.23;;;;;;;7.58;100.00;97865.81;5054136;28;20041;-85
2022/05/08 03:31:49;;;;;;;16.40;9.88;;;;;;;7.67;100.00;97880.50;5041434;28;20029;-85
2022/05/08 03:34:15;;;;;;;23.13;10.10;;;;;;;7.63;100.00;97872.66;5037267;28;20032;-85
2022/05/08 03:36:41;;;;;;;22.02;9.57;;;;;;;7.72;100.00;97886.50;5037155;28;20025;-85
2022/05/08 03:39:06;;;;;;;19.10;9.75;;;;;;;7.89;100.00;97903.44;5053430;28;20122;-86
2022/05/08 03:41:32;;;;;;;27.02;10.32;;;;;;;7.96;100.00;97915.53;5053422;28;20514;-85
2022/05/08 03:43:58;;;;;;;24.35;9.80;;;;;;;7.83;100.00;97893.06;5037009;28;20021;-83
2022/05/08 03:46:23;;;;;;;19.50;10.73;;;;;;;7.83;100.00;97895.72;5055012;28;20455;-85
2022/05/08 03:48:49;;;;;;;22.75;10.95;;;;;;;7.82;100.00;97903.75;5038386;28;20020;-84
2022/05/08 03:51:14;;;;;;;21.05;11.00;;;;;;;7.93;100.00;97918.34;5054485;28;20086;-84
2022/05/08 03:53:40;;;;;;;17.63;9.48;;;;;;;7.85;100.00;97899.16;5037721;28;20133;-85
2022/05/08 03:56:08;;;;;;;16.25;9.50;;;;;;;7.82;100.00;97896.66;5054620;28;20033;-84
2022/05/08 03:58:34;;;;;;;11.68;8.43;;;;;;;7.86;100.00;97906.25;5036987;28;20025;-84
2022/05/08 04:00:59;;;;;;;16.17;10.40;;;;;;;7.83;100.00;97893.06;5036315;28;20036;-83
2022/05/08 04:03:25;;;;;;;19.95;9.70;;;;;;;7.99;100.00;97910.09;5053158;28;20036;-85
2022/05/08 04:05:50;;;;;;;15.95;9.75;;;;;;;8.02;100.00;97904.59;5036726;28;20052;-84
2022/05/08 04:08:16;;;;;;;22.95;10.13;;;;;;;7.95;100.00;97887.16;5037218;28;20024;-84
2022/05/08 04:10:42;;;;;;;17.55;10.15;;;;;;;8.01;100.00;97902.88;5037917;28;20405;-84
2022/05/08 04:13:08;;;;;;;17.38;9.32;;;;;;;8.19;100.00;97922.47;5037633;28;20481;-84
2022/05/08 04:18:26;;;;;;;;;;;;;;;8.76;100.00;97929.53;5034854;28;20040;-86
2022/05/08 04:20:52;;;;;;;18.58;9.50;;;;;;;9.38;100.00;97917.53;5046105;28;20308;-86
2022/05/08 04:26:01;;;;;;;15.45;8.90;;;;;;;10.72;89.76;97912.00;5054126;28;20028;-84
2022/05/08 04:28:27;;;;;;;20.65;9.13;;;;;;;10.33;91.31;97915.97;5053480;28;20017;-84
2022/05/08 04:30:53;;;;;;;26.55;9.35;;;;;;;10.11;93.27;97915.38;5053901;28;20401;-86
2022/05/08 04:33:18;;;;;;;17.88;9.35;;;;;;;10.10;95.54;97948.41;5036130;28;20029;-86
2022/05/08 04:35:47;;;;;;;17.40;8.95;;;;;;;9.91;96.88;97939.63;5054135;28;20337;-86
2022/05/08 04:38:15;;;;;;;17.98;10.07;;;;;;;9.60;98.46;97920.81;5049586;28;20031;-86
2022/05/08 04:40:41;;;;;;;25.65;10.40;;;;;;;9.59;100.00;97927.09;5040506;28;20041;-86
2022/05/08 04:43:07;;;;;;;20.05;10.55;;;;;;;9.80;99.56;97948.22;5036009;28;20036;-86
2022/05/08 04:45:33;;;;;;;17.65;10.38;;;;;;;9.69;99.03;97928.38;5053349;28;20029;-86
2022/05/08 04:47:59;;;;;;;21.70;10.43;;;;;;;9.82;98.28;97929.44;5036361;28;20094;-85
2022/05/08 04:50:24;;;;;;;15.90;10.07;;;;;;;9.81;96.77;97933.06;5052673;28;20483;-86
2022/05/08 04:52:50;;;;;;;14.27;9.07;;;;;;;9.73;95.21;97920.09;5038220;28;20428;-85
2022/05/08 04:55:16;;;;;;;15.32;9.20;;;;;;;10.02;95.00;97950.63;5052820;28;20040;-85
2022/05/08 04:57:41;;;;;;;16.98;8.65;;;;;;;10.02;93.91;97923.91;5036799;28;20033;-86
2022/05/08 05:00:17;;;;;;;12.10;7.65;;;;;;;10.27;91.38;97937.69;5071032;28;20036;-86
2022/05/08 05:02:44;;;;;;;11.68;6.78;;;;;;;10.22;88.70;97918.38;5053372;28;20471;-86
2022/05/08 05:05:10;;;;;;;11.57;6.50;;;;;;;10.35;87.25;97918.56;5038467;28;20043;-86
2022/05/08 05:07:39;;;;;;;9.38;6.28;;;;;;;10.28;85.04;97920.69;5036267;28;20032;-87
2022/05/08 05:10:06;;;;;;;15.55;7.50;;;;;;;10.26;86.56;97898.53;5053637;28;20033;-87
2022/05/08 05:12:31;;;;;;;19.25;10.60;;;;;;;10.59;84.78;97924.34;5055395;28;20065;-86
2022/05/08 05:14:59;;;;;;;15.57;7.57;;;;;;;11.01;83.79;97948.69;5036600;28;20476;-86
2022/05/08 05:17:25;;;;;;;20.38;7.50;;;;;;;11.09;82.12;97933.03;5037014;28;20477;-88
2022/05/08 05:19:51;;;;;;;11.95;6.40;;;;;;;11.52;77.58;97899.25;5054357;28;20025;-85
2022/05/08 05:22:22;;;;;;;20.15;11.35;;;;;;;13.31;69.53;97931.63;5049973;28;20043;-75
2022/05/08 05:24:49;;;;;;;12.38;7.15;;;;;;;15.21;61.78;97905.50;5031370;28;20225;-75
2022/05/08 05:27:15;;;;;;;13.75;6.85;;;;;;;17.05;54.31;97899.94;5048874;28;20032;-76
2022/05/08 05:29:41;;;;;;;12.02;6.38;;;;;;;19.00;49.39;97865.78;5027932;28;20493;-77
2022/05/08 05:32:07;;;;;;;15.23;6.35;;;;;;;20.36;44.82;97878.25;5030263;28;20036;-75
2022/05/08 05:34:32;;;;;;;14.27;6.50;;;;;;;21.35;43.12;97882.06;5046943;28;20031;-75
2022/05/08 05:36:58;;;;;;;14.02;5.57;;;;;;;22.33;39.94;97879.22;5047183;28;20040;-76
2022/05/08 05:39:24;;;;;;;7.68;5.63;;;;;;;23.20;38.27;97866.19;5049011;28;20498;-83
2022/05/08 05:41:50;;;;;;;9.80;6.00;;;;;;;23.92;37.46;97864.66;5050530;28;21572;-81
2022/05/08 05:44:16;;;;;;;12.38;5.55;;;;;;;23.92;36.88;97870.97;5045847;28;20091;-83
2022/05/08 05:49:27;;;;;;;11.25;6.25;;;;;;;24.26;36.14;97868.09;5046277;28;20052;-75
2022/05/08 05:51:56;;;;;;;8.90;5.25;;;;;;;23.37;36.43;97864.38;5047835;28;20024;-74
2022/05/08 05:54:22;;;;;;;11.98;5.82;;;;;;;21.42;40.20;97878.56;5049252;28;20036;-89
2022/05/08 05:56:48;;;;;;;10.10;6.25;;;;;;;23.43;37.40;97869.19;5033724;28;20032;-83
2022/05/08 05:59:14;;;;;;;13.90;9.07;;;;;;;22.52;38.24;97860.75;5049112;28;20065;-83
2022/05/08 06:01:40;;;;;;;12.27;8.27;;;;;;;22.20;39.02;97862.44;5032274;28;20118;-83
2022/05/08 06:04:05;;;;;;;9.77;6.95;;;;;;;22.74;38.46;97861.22;5053609;28;20484;-84
2022/05/08 06:06:31;;;;;;;17.02;10.52;;;;;;;22.08;39.12;97881.78;5053406;28;20037;-83
2022/05/08 06:08:57;;;;;;;12.27;6.07;;;;;;;23.23;37.83;97858.53;5035582;28;20106;-83
2022/05/08 06:11:22;;;;;;;31.02;21.35;;;;;;;24.80;35.70;97861.81;5036150;28;20064;-82
2022/05/08 06:13:48;;;;;;;83.57;53.08;;;;;;;25.07;35.62;97876.94;5051811;28;20025;-80
2022/05/08 06:16:13;;;;;;;32.67;19.02;;;;;;;23.80;36.95;97857.81;5051949;28;20500;-80
2022/05/08 06:18:39;;;;;;;14.90;7.53;;;;;;;22.93;38.85;97882.81;5035373;28;20031;-81
2022/05/08 06:21:05;;;;;;;12.02;6.75;;;;;;;24.03;37.03;97876.09;5035313;28;20025;-81
2022/05/08 06:23:30;;;;;;;14.75;6.82;;;;;;;24.98;35.84;97869.78;5034655;28;20028;-80
2022/05/08 06:25:56;;;;;;;14.13;7.00;;;;;;;22.83;37.50;97871.16;5051590;28;20111;-80
2022/05/08 06:28:22;;;;;;;10.35;7.07;;;;;;;22.60;38.54;97881.78;5035334;28;20082;-80
2022/05/08 06:30:48;;;;;;;12.20;6.07;;;;;;;23.40;37.44;97869.53;5034857;28;20058;-80
2022/05/08 06:33:13;;;;;;;25.77;15.05;;;;;;;23.33;37.31;97879.38;5035018;28;20039;-80
2022/05/08 06:35:39;;;;;;;45.58;23.40;;;;;;;22.95;38.22;97876.16;5051475;28;20033;-80
2022/05/08 06:38:06;;;;;;;13.98;6.53;;;;;;;24.74;35.31;97846.09;5052672;28;20041;-81
2022/05/08 06:40:32;;;;;;;15.25;7.38;;;;;;;26.35;32.33;97857.97;5035068;28;20043;-81
2022/05/08 06:42:57;;;;;;;10.52;6.75;;;;;;;25.81;33.21;97859.06;5033858;28;20120;-80
2022/05/08 06:45:24;;;;;;;15.85;8.85;;;;;;;24.37;35.13;97858.66;5050855;28;20029;-81
2022/05/08 06:47:50;;;;;;;15.80;5.90;;;;;;;24.38;35.14;97853.03;5051928;28;20499;-81
2022/05/08 06:50:19;;;;;;;12.65;5.60;;;;;;;24.66;34.69;97869.88;5028224;28;20460;-80
2022/05/08 06:52:45;;;;;;;15.93;6.57;;;;;;;26.16;33.18;97858.50;5052684;28;20056;-81
2022/05/08 06:55:11;;;;;;;14.50;6.20;;;;;;;25.72;33.09;97863.78;5054840;28;20107;-80
2022/05/08 06:57:37;;;;;;;9.93;5.45;;;;;;;26.69;31.78;97867.56;5054968;28;20029;-81
2022/05/08 07:03:07;;;;;;;12.50;5.20;;;;;;;29.80;28.66;97859.06;5055571;28;20035;-81
2022/05/08 07:05:37;;;;;;;14.70;4.90;;;;;;;29.09;28.61;97824.63;5039536;28;20029;-81
2022/05/08 07:08:04;;;;;;;11.68;5.35;;;;;;;29.53;27.92;97825.00;5039631;28;20052;-83
2022/05/08 07:10:30;;;;;;;8.93;5.38;;;;;;;30.81;26.41;97837.69;5038556;28;20025;-82
2022/05/08 07:12:56;;;;;;;7.40;5.32;;;;;;;30.71;26.50;97827.06;5039234;28;20086;-83
2022/05/08 07:15:25;;;;;;;9.80;4.82;;;;;;;31.57;25.32;97824.91;5055825;28;20028;-82
2022/05/08 07:17:54;;;;;;;11.25;5.47;;;;;;;31.10;25.62;97812.34;5039875;28;20055;-83
2022/05/08 07:20:19;;;;;;;16.83;5.82;;;;;;;30.37;26.22;97822.63;5057253;28;20037;-84
2022/05/08 07:22:45;;;;;;;7.80;4.90;;;;;;;28.51;28.09;97823.19;5057373;28;20025;-83
2022/05/08 07:25:12;;;;;;;13.68;5.20;;;;;;;29.16;28.25;97814.47;5056968;28;20041;-82
2022/05/08 07:27:39;;;;;;;7.18;4.88;;;;;;;30.06;26.90;97814.09;5040647;28;20025;-83
2022/05/08 07:30:09;;;;;;;9.95;4.63;;;;;;;30.34;26.35;97806.47;5038800;28;20560;-82
2022/05/08 07:32:35;;;;;;;8.93;4.55;;;;;;;28.02;28.11;97801.16;5058457;28;20044;-82
2022/05/08 07:37:45;;;;;;;13.50;4.18;;;;;;;28.00;29.39;97839.00;5056331;28;20087;-81
2022/05/08 07:40:13;;;;;;;8.88;4.57;;;;;;;29.50;27.10;97825.44;5038817;28;20552;-81
2022/05/08 07:42:39;;;;;;;11.18;3.95;;;;;;;30.37;26.05;97822.63;5038083;28;20060;-81
2022/05/08 07:45:06;;;;;;;9.90;3.78;;;;;;;30.40;25.70;97822.22;5032315;28;20096;-75
2022/05/08 07:47:33;;;;;;;9.13;4.53;;;;;;;30.78;25.86;97829.81;5049040;28;20044;-77
2022/05/08 07:49:58;;;;;;;11.50;3.70;;;;;;;30.61;25.73;97810.94;5048690;28;20040;-75
2022/05/08 07:52:24;;;;;;;7.47;3.78;;;;;;;31.40;25.39;97835.63;5031815;28;20037;-75
2022/05/08 07:54:50;;;;;;;10.45;3.92;;;;;;;32.03;23.93;97813.59;5048617;28;20032;-76
2022/05/08 07:57:15;;;;;;;10.40;4.07;;;;;;;32.89;23.01;97819.22;5031909;28;20082;-75
2022/05/08 07:59:41;;;;;;;7.30;4.32;;;;;;;32.93;23.17;97812.16;5032026;28;20582;-76
2022/05/08 08:02:07;;;;;;;6.50;4.18;;;;;;;32.37;22.47;97802.00;5048445;28;20025;-76
2022/05/08 08:04:34;;;;;;;6.00;3.55;;;;;;;32.50;22.47;97801.91;5048304;28;20397;-76
2022/05/08 08:07:01;;;;;;;9.32;3.90;;;;;;;30.74;24.79;97803.69;5031976;28;20036;-76
2022/05/08 08:09:26;;;;;;;5.65;3.90;;;;;;;30.70;24.39;97805.19;5050806;28;20021;-76
2022/05/08 08:11:53;;;;;;;10.48;3.90;;;;;;;30.88;24.65;97808.13;5048110;28;20027;-76
2022/05/08 08:14:20;;;;;;;6.13;4.03;;;;;;;30.75;24.47;97808.16;5048135;28;20025;-76
2022/05/08 08:16:46;;;;;;;9.30;3.72;;;;;;;31.84;23.95;97803.50;5031569;28;20146;-76
2022/05/08 08:19:12;;;;;;;6.25;3.70;;;;;;;33.26;22.60;97794.06;5047774;28;20031;-76
2022/05/08 08:21:37;;;;;;;6.90;3.85;;;;;;;32.76;22.96;97808.28;5048173;28;20103;-76
2022/05/08 08:24:03;;;;;;;5.18;3.53;;;;;;;31.99;24.45;97817.84;5047984;28;20040;-75
2022/05/08 08:26:29;;;;;;;6.28;3.60;;;;;;;32.98;23.13;97813.16;5030324;28;20036;-76
2022/05/08 08:28:55;;;;;;;6.22;4.03;;;;;;;32.70;23.41;97818.38;5048056;28;20039;-76
2022/05/08 08:31:21;;;;;;;5.75;3.58;;;;;;;33.47;22.38;97801.03;5047777;28;20476;-76
2022/05/08 08:33:47;;;;;;;8.57;4.57;;;;;;;33.14;23.01;97804.25;5047882;28;20219;-76
2022/05/08 08:36:13;;;;;;;7.55;3.65;;;;;;;33.78;22.20;97806.41;5047778;28;20036;-76
2022/05/08 08:38:39;;;;;;;7.68;4.30;;;;;;;34.05;22.21;97806.03;5030789;28;20129;-75
2022/05/08 08:41:07;;;;;;;8.40;3.80;;;;;;;30.46;25.17;97806.69;5040662;28;20028;-76
2022/05/08 08:49:09;;;;;;;5.85;4.07;;;;;;;32.25;24.08;97801.06;5048179;28;20531;-77
2022/05/08 08:51:36;;;;;;;6.68;4.22;;;;;;;32.29;23.45;97791.22;5047461;28;20451;-76
2022/05/08 08:54:03;;;;;;;13.02;3.95;;;;;;;32.44;24.23;97800.03;5047705;28;20424;-77
2022/05/08 08:56:29;;;;;;;4.72;3.80;;;;;;;32.03;23.63;97795.06;5047094;28;20503;-77
2022/05/08 08:58:54;;;;;;;10.60;3.83;;;;;;;31.62;24.40;97794.69;5047076;28;20033;-76
2022/05/08 09:01:20;;;;;;;9.23;3.70;;;;;;;32.31;23.59;97788.22;5049006;28;20035;-76
2022/05/08 09:03:46;;;;;;;7.13;3.80;;;;;;;32.18;23.22;97797.47;5047257;28;20480;-76
2022/05/08 09:06:11;;;;;;;8.65;3.90;;;;;;;32.17;23.26;97801.34;5030405;28;20352;-75
2022/05/08 09:08:37;;;;;;;10.60;4.30;;;;;;;31.19;24.11;97790.81;5062928;28;20021;-76
2022/05/08 09:11:03;;;;;;;7.20;4.15;;;;;;;32.19;23.65;97791.72;5030418;28;20036;-76
2022/05/08 09:13:31;;;;;;;10.32;4.68;;;;;;;33.59;22.60;97792.81;5030355;28;20027;-75
2022/05/08 09:16:04;;;;;;;9.13;3.25;;;;;;;33.51;22.32;97780.09;5047118;28;20025;-76
2022/05/08 09:18:30;;;;;;;6.97;4.22;;;;;;;33.85;22.28;97783.25;5046819;28;20543;-76
2022/05/08 09:21:54;;;;;;;6.00;3.28;;;;;;;34.25;22.14;97787.13;5046900;28;20033;-77
2022/05/08 09:23:43;;;;;;;9.73;3.40;;;;;;;34.13;21.88;97775.16;5049313;28;20503;-77
2022/05/08 09:26:08;;;;;;;8.88;3.28;;;;;;;32.34;22.87;97766.47;5049201;28;20530;-77
2022/05/08 09:28:44;;;;;;;6.45;3.60;;;;;;;32.09;23.23;97780.31;5049618;28;20060;-76
2022/05/08 09:31:15;;;;;;;6.10;3.88;;;;;;;32.37;24.08;97782.63;5049234;28;20060;-76
2022/05/08 09:33:43;;;;;;;10.27;3.72;;;;;;;33.12;23.08;97775.06;5049338;28;20489;-76
2022/05/08 09:36:11;;;;;;;8.80;3.80;;;;;;;32.54;23.09;97771.81;5032409;28;20067;-75
2022/05/08 09:39:03;;;;;;;8.88;3.95;;;;;;;32.72;23.40;97781.03;5049437;28;20028;-76
2022/05/08 09:41:29;;;;;;;9.38;4.20;;;;;;;33.06;23.21;97782.34;5045467;28;20041;-76
2022/05/08 09:44:08;;;;;;;8.15;4.25;;;;;;;33.23;22.87;97775.13;5049240;28;20039;-75
2022/05/08 09:46:38;;;;;;;8.02;3.80;;;;;;;33.77;22.12;97767.78;5049289;28;20523;-75
2022/05/08 09:49:06;;;;;;;8.02;3.40;;;;;;;32.33;22.82;97762.00;5049155;28;20425;-75
2022/05/08 09:51:33;;;;;;;8.68;3.63;;;;;;;33.25;22.81;97766.59;5049286;28;20425;-75
2022/05/08 09:54:00;;;;;;;8.65;4.38;;;;;;;34.30;21.07;97765.03;5049217;28;20033;-76
2022/05/08 09:56:26;;;;;;;9.98;3.80;;;;;;;34.71;19.96;97745.47;5032461;28;20017;-75
2022/05/08 09:58:52;;;;;;;5.85;3.38;;;;;;;34.65;20.41;97748.38;5049237;28;20025;-76
2022/05/08 10:01:17;;;;;;;14.40;4.32;;;;;;;34.05;20.63;97758.81;5048939;28;20036;-76
2022/05/08 10:03:43;;;;;;;32.83;21.23;;;;;;;32.63;22.30;97749.16;5048810;28;20378;-77
2022/05/08 10:06:10;;;;;;;7.78;3.90;;;;;;;34.06;21.43;97754.94;5049200;28;20424;-76
2022/05/08 10:08:39;;;;;;;19.73;9.55;;;;;;;33.72;20.73;97735.19;5032232;28;20103;-76
2022/05/08 10:13:57;;;;;;;15.52;9.05;;;;;;;32.41;22.65;97739.56;5050273;28;20451;-77
2022/05/08 10:16:49;;;;;;;4.85;3.50;;;;;;;32.13;22.25;97742.78;5068454;28;20111;-84
2022/05/08 10:19:17;;;;;;;12.05;3.53;;;;;;;31.80;22.98;97736.66;5064373;28;20036;-90
2022/05/08 10:22:10;;;;;;;6.57;3.10;;;;;;;33.47;21.85;97744.72;5055173;28;20108;-92
2022/05/08 10:25:10;;;;;;;7.35;3.70;;;;;;;34.30;20.86;97740.03;5056915;28;20044;-90
2022/05/08 10:27:35;;;;;;;11.23;3.65;;;;;;;35.25;20.41;97726.66;5057252;28;20058;-78
2022/05/08 10:30:04;;;;;;;6.45;3.58;;;;;;;35.17;19.74;97718.69;5046717;28;20572;-78
2022/05/08 10:32:35;;;;;;;9.32;6.65;;;;;;;35.11;20.67;97726.09;5047923;28;20024;-79
2022/05/08 10:35:21;;;;;;;6.75;3.20;;;;;;;33.79;20.39;97726.75;5063454;28;20044;-78
2022/05/08 10:37:51;;;;;;;6.28;3.00;;;;;;;34.53;20.52;97731.69;5028599;28;20097;-78
2022/05/08 10:40:23;;;;;;;4.80;3.03;;;;;;;34.50;20.39;97707.16;5030242;28;20044;-78
2022/05/08 10:42:59;;;;;;;5.47;3.70;;;;;;;35.16;19.67;97717.00;5044850;28;20033;-79
2022/05/08 10:45:36;;;;;;;7.35;3.30;;;;;;;33.29;21.55;97719.81;5046118;28;20047;-78
2022/05/08 10:48:09;;;;;;;9.00;3.20;;;;;;;34.88;21.07;97719.72;5048497;28;20021;-78
2022/05/08 10:50:36;;;;;;;5.35;3.67;;;;;;;34.57;21.06;97707.03;5050399;28;20167;-78
2022/05/08 10:53:02;;;;;;;11.55;3.42;;;;;;;35.64;20.77;97714.66;5050200;28;20036;-80
2022/05/08 10:55:29;;;;;;;7.82;4.30;;;;;;;36.39;19.35;97711.50;5050558;28;20175;-78
2022/05/08 10:57:55;;;;;;;10.40;3.47;;;;;;;35.49;20.24;97705.13;5033668;28;20126;-78
2022/05/08 11:00:26;;;;;;;6.72;3.30;;;;;;;36.02;20.32;97715.88;5050344;28;20040;-78
2022/05/08 11:02:57;;;;;;;4.28;3.30;;;;;;;34.64;20.60;97710.56;5049515;28;20025;-78
2022/05/08 11:05:32;;;;;;;7.50;3.78;;;;;;;34.00;21.72;97705.88;5050238;28;20426;-80
2022/05/08 11:08:10;;;;;;;6.63;3.30;;;;;;;34.25;21.88;97709.34;5050995;28;20070;-81
2022/05/08 11:10:37;;;;;;;8.70;3.78;;;;;;;34.59;21.55;97700.16;5052824;28;20099;-82
2022/05/08 11:13:14;;;;;;;5.95;3.30;;;;;;;33.84;22.29;97703.84;5050858;28;20429;-79
2022/05/08 11:15:43;;;;;;;13.98;3.90;;;;;;;33.36;22.25;97710.28;5033365;28;20051;-79
2022/05/08 11:18:15;;;;;;;7.32;3.45;;;;;;;32.72;22.79;97699.81;5065947;28;20041;-77
2022/05/08 11:20:47;;;;;;;11.10;4.97;;;;;;;32.72;23.05;97697.91;5048493;28;20029;-77
2022/05/08 11:23:13;;;;;;;8.25;3.90;;;;;;;32.01;23.72;97710.50;5050913;28;20116;-78
2022/05/08 11:25:40;;;;;;;5.47;3.80;;;;;;;33.16;23.15;97710.56;5046683;28;20549;-78
2022/05/08 11:28:13;;;;;;;7.85;3.28;;;;;;;34.03;21.91;97700.72;5045593;28;20444;-78
2022/05/08 11:30:39;;;;;;;9.10;4.05;;;;;;;34.67;21.99;97697.00;5034174;28;20060;-77
2022/05/08 11:36:05;;;;;;;6.15;3.80;;;;;;;33.19;23.18;97703.72;5051260;28;20031;-79
2022/05/08 11:38:50;;;;;;;6.97;3.97;;;;;;;33.34;22.62;97698.59;5051080;28;20519;-78
2022/05/08 11:41:26;;;;;;;8.85;3.65;;;;;;;34.01;22.66;97710.38;5050620;28;20025;-78
2022/05/08 11:43:58;;;;;;;8.60;3.42;;;;;;;33.79;22.23;97702.63;5067105;28;20029;-79
2022/05/08 11:46:36;;;;;;;5.97;3.30;;;;;;;34.05;22.54;97700.47;5060203;28;20036;-80
2022/05/08 11:49:22;;;;;;;4.13;3.38;;;;;;;33.79;21.98;97685.09;5033532;28;20037;-80
2022/05/08 11:51:53;;;;;;;6.53;3.15;;;;;;;32.86;22.74;97687.47;5051716;28;20040;-78
2022/05/08 11:54:40;;;;;;;6.57;3.10;;;;;;;33.51;22.87;97690.44;5050271;28;20665;-77
2022/05/08 11:57:13;;;;;;;6.82;3.20;;;;;;;31.71;23.61;97681.81;5049463;28;20291;-78
2022/05/08 11:59:39;;;;;;;8.20;3.28;;;;;;;31.48;24.58;97688.75;5064952;28;20481;-77
2022/05/08 12:02:04;;;;;;;7.15;3.40;;;;;;;31.42;24.58;97684.13;5048098;28;20111;-77